METAR Data
IDs: Format: Raw Decoded Include TAF

Data at: 0638 UTC 03 Aug 2021

KO22 030635Z AUTO 00000KT 10SM CLR 21/05 A3004 RMK A01
KO22 030615Z AUTO 04003KT 10SM CLR 22/05 A3004 RMK A01
KO22 030555Z AUTO 00000KT 10SM CLR 21/05 A3004 RMK A01
KO22 030535Z AUTO 05004KT 10SM CLR 23/05 A3004 RMK A01
KO22 030515Z AUTO 00000KT 10SM CLR 23/04 A3004 RMK A01
KO22 030455Z AUTO 00000KT 10SM CLR 24/04 A3005 RMK A01
KO22 030435Z AUTO 00000KT 10SM CLR 23/04 A3005 RMK A01
KO22 030415Z AUTO 00000KT 10SM CLR 24/04 A3005 RMK A01
KO22 030355Z AUTO 00000KT 10SM CLR 25/04 A3004 RMK A01
KO22 030335Z AUTO 00000KT 10SM CLR 27/04 A3004 RMK A01
KO22 030315Z AUTO 00000KT 10SM CLR 28/03 A3004 RMK A01
KO22 030255Z AUTO VRB04KT 10SM CLR 30/03 A3004 RMK A01
KO22 030235Z AUTO 29006KT 10SM CLR 31/02 A3004 RMK A01
KO22 030215Z AUTO VRB04KT 10SM CLR 33/02 A3004 RMK A01
KO22 030155Z AUTO 25005KT 10SM CLR 34/02 A3004 RMK A01
KO22 030135Z AUTO 25005KT 10SM CLR 34/02 A3004 RMK A01
KO22 030115Z AUTO VRB04KT 10SM CLR 35/02 A3004 RMK A01
KO22 030055Z AUTO VRB03KT 10SM CLR 35/03 A3005 RMK A01
KO22 030035Z AUTO 23006KT 10SM CLR 35/03 A3005 RMK A01
KO22 030015Z AUTO 19005KT 10SM CLR 35/04 A3005 RMK A01
KO22 022355Z AUTO 24005KT 10SM CLR 35/03 A3006 RMK A01
KO22 022335Z AUTO 23007KT 10SM CLR 35/03 A3006 RMK A01
KO22 022315Z AUTO VRB05KT 10SM CLR 37/02 A3007 RMK A01
KO22 022255Z AUTO 22003KT 10SM CLR 35/00 A3007 RMK A01
KO22 022235Z AUTO 23005KT 10SM CLR 36/M00 A3008 RMK A01
KO22 022215Z AUTO 23007KT 10SM CLR 36/01 A3008 RMK A01
KO22 022155Z AUTO 23008KT 10SM CLR 36/01 A3009 RMK A01
KO22 022135Z AUTO VRB06G11KT 10SM CLR 36/01 A3009 RMK A01
KO22 022115Z AUTO 17006KT 10SM CLR 35/00 A3009 RMK A01
KO22 022055Z AUTO 17004KT 10SM CLR 35/01 A3010 RMK A01
KO22 022035Z AUTO VRB05G11KT 10SM CLR 35/02 A3010 RMK A01
KO22 022015Z AUTO 23006KT 10SM CLR 35/03 A3010 RMK A01
KO22 021955Z AUTO 15005KT 10SM CLR 34/04 A3010 RMK A01
KO22 021935Z AUTO 18006G11KT 10SM CLR 34/05 A3010 RMK A01
KO22 021915Z AUTO VRB04KT 10SM CLR 33/05 A3011 RMK A01
KO22 021855Z AUTO 18006KT 10SM CLR 34/06 A3011 RMK A01
KO22 021835Z AUTO 18006G11KT 10SM CLR 33/06 A3011 RMK A01
KO22 021815Z AUTO 17006KT 10SM CLR 33/06 A3011 RMK A01
KO22 021755Z AUTO 20006KT 10SM CLR 33/05 A3011 RMK A01
KO22 021735Z AUTO 18004KT 10SM CLR 32/05 A3011 RMK A01
KO22 021715Z AUTO 20004KT 10SM CLR 32/05 A3011 RMK A01
KO22 021655Z AUTO 16003KT 10SM CLR 31/05 A3011 RMK A01
KO22 021635Z AUTO 17004KT 10SM CLR 30/05 A3011 RMK A01
KO22 021615Z AUTO 18004KT 10SM CLR 29/05 A3011 RMK A01
KO22 021555Z AUTO 00000KT 10SM CLR 29/06 A3012 RMK A01
KO22 021535Z AUTO 00000KT 10SM CLR 27/07 A3012 RMK A01
KO22 021515Z AUTO 00000KT 10SM CLR 25/09 A3012 RMK A01
KO22 021455Z AUTO 00000KT 10SM CLR 23/09 A3012 RMK A01
KO22 021435Z AUTO 10SM CLR 20/09 A3012 RMK A01
KO22 021415Z AUTO 00000KT 10SM CLR 19/08 A3011 RMK A01
KO22 021355Z AUTO 00000KT 10SM CLR 17/08 A3011 RMK A01
KO22 021335Z AUTO 00000KT 10SM CLR 17/07 A3010 RMK A01
KO22 021315Z AUTO 00000KT 10SM CLR 17/07 A3009 RMK A01
KO22 021255Z AUTO 00000KT 10SM CLR 17/07 A3009 RMK A01
KO22 021235Z AUTO 00000KT 10SM CLR 17/07 A3008 RMK A01
KO22 021215Z AUTO 00000KT 10SM CLR 17/07 A3007 RMK A01
KO22 021155Z AUTO 00000KT 10SM CLR 17/07 A3007 RMK A01
KO22 021135Z AUTO 00000KT 10SM CLR 17/07 A3007 RMK A01
KO22 021115Z AUTO 00000KT 10SM CLR 18/08 A3007 RMK A01
KO22 021055Z AUTO 00000KT 10SM CLR 18/08 A3006 RMK A01
KO22 021035Z AUTO 00000KT 10SM FEW038 18/08 A3006 RMK A01
KO22 021015Z AUTO 00000KT 10SM FEW037 19/08 A3006 RMK A01
KO22 020955Z AUTO 00000KT 10SM CLR 19/08 A3006 RMK A01
KO22 020935Z AUTO 00000KT 10SM CLR 19/08 A3006 RMK A01
KO22 020915Z AUTO 00000KT 10SM CLR 19/09 A3006 RMK A01
KO22 020855Z AUTO 00000KT 10SM CLR 19/09 A3007 RMK A01
KO22 020835Z AUTO 00000KT 10SM CLR 20/09 A3007 RMK A01
KO22 020815Z AUTO 00000KT 10SM CLR 20/09 A3007 RMK A01
KO22 020755Z AUTO 00000KT 10SM CLR 20/09 A3006 RMK A01
KO22 020735Z AUTO 00000KT 10SM CLR 20/09 A3007 RMK A01
KO22 020715Z AUTO 00000KT 10SM CLR 20/09 A3007 RMK A01
KO22 020655Z AUTO 00000KT 10SM CLR 20/09 A3007 RMK A01
KO22 020635Z AUTO 00000KT 10SM CLR 21/09 A3007 RMK A01
KO22 020615Z AUTO 00000KT 10SM CLR 21/09 A3007 RMK A01
KO22 020555Z AUTO 00000KT 10SM CLR 22/10 A3007 RMK A01
KO22 020535Z AUTO 00000KT 10SM CLR 23/10 A3007 RMK A01
KO22 020515Z AUTO 00000KT 10SM CLR 24/09 A3006 RMK A01
KO22 020455Z AUTO 00000KT 10SM CLR 25/09 A3006 RMK A01
KO22 020435Z AUTO 00000KT 10SM CLR 25/10 A3006 RMK A01
KO22 020415Z AUTO 00000KT 10SM CLR 26/10 A3005 RMK A01
KO22 020355Z AUTO 00000KT 10SM CLR 27/10 A3005 RMK A01
KO22 020335Z AUTO 00000KT 10SM CLR 28/09 A3004 RMK A01
KO22 020315Z AUTO 00000KT 10SM CLR 29/09 A3004 RMK A01
KO22 020255Z AUTO 00000KT 10SM CLR 32/09 A3004 RMK A01
KO22 020235Z AUTO 00000KT 10SM CLR 33/08 A3003 RMK A01
KO22 020215Z AUTO 24003KT 10SM CLR 34/07 A3003 RMK A01
KO22 020155Z AUTO 21003KT 10SM CLR 35/07 A3003 RMK A01
KO22 020135Z AUTO 21005KT 10SM CLR 35/07 A3003 RMK A01
KO22 020115Z AUTO 25006KT 10SM CLR 35/07 A3003 RMK A01
KO22 020055Z AUTO 24006KT 10SM CLR 35/07 A3003 RMK A01
KO22 020035Z AUTO 24007KT 10SM CLR 36/07 A3003 RMK A01
KO22 020015Z AUTO 23005G13KT 10SM CLR 36/06 A3004 RMK A01
KO22 012355Z AUTO 24007KT 10SM CLR 36/06 A3004 RMK A01
KO22 012335Z AUTO 22007KT 37/06 A3004 RMK A01
KO22 012315Z AUTO 23008KT 200V260 37/06 A3004 RMK A01
KO22 012255Z AUTO 20006KT CLR 37/06 A3004 RMK A01
KO22 012235Z AUTO 18005KT 10SM CLR 37/06 A3004 RMK A01
KO22 012215Z AUTO 17005KT 10SM CLR 37/06 A3004 RMK A01
KO22 012155Z AUTO 17005G11KT 10SM CLR 37/06 A3005 RMK A01
KO22 012135Z AUTO VRB05KT 10SM CLR 36/07 A3005 RMK A01
KO22 012115Z AUTO 23006G11KT 10SM CLR 36/07 A3005 RMK A01
KO22 012055Z AUTO 17006KT 10SM CLR 37/08 A3006 RMK A01
KO22 012035Z AUTO 16008KT 10SM CLR 36/08 A3006 RMK A01
KO22 012015Z AUTO 17006G12KT 10SM CLR 35/07 A3007 RMK A01
KO22 011955Z AUTO VRB05G12KT 10SM CLR 36/08 A3007 RMK A01
KO22 011935Z AUTO 18005KT 10SM CLR 35/08 A3007 RMK A01
KO22 011915Z AUTO 20007KT 10SM CLR 35/08 A3008 RMK A01
KO22 011855Z AUTO VRB06G12KT 10SM CLR 35/08 A3008 RMK A01